Content
SEND FEEDBACK

Daily
Averages
Monthly
Summary
Switzerland

GENEVA, SWITZERLAND


Home > Europe > Switzerland
Elevation: 415 meters     Latitude: 46 15N     Longitude: 006 08E

WEATHER
 
SELECT A DAY
Number of Records: 306,355;   Date Range: 7/1/96 - 9/20/14
 
SHARE

PRINT THIS DATA

[ ← Previous Day ]
WEATHER ALMANAC - 21 JANUARY, 2013
[ Next Day → ]
[ °F ]   °C
Weather ElementAverageHighLow
Temperature0.4 °C3.3 °C (11:00 pm)-4 °C (5:50 am)
Dewpoint-2.1 °C1 °C (8:20 pm)-5 °C (5:50 am)
Humidity82 %93 % (4:50 am)64 % (11:00 pm)
Barometer999 hPa1002.7 hPa (11:00 pm)996.3 hPa (1:50 am)
Wind Speed10.8 km/h24.1 km/h (11:20 pm)
Weather ElementAverage
Visibility11.9 km
Wind DirectionSSW (210.7 °)

Weather ElementTotal
Precipitation---
Heating Degree Days18.7 (Base 18.3)
Averaged from 67 records on 21 January, 2013
WEATHER CONDITIONS BREAKOUT
WIND DIRECTION BREAKOUT
WEATHER BY HOUR - 21 JANUARY, 2013
[ °F ]   °C
Local TimeTemperatureDewpointHumidityBarometerVisibilityWind DirectionWind SpeedGust SpeedPrecipitationEventsConditions
12:20 AM0 °C-3 °C80 %997 hPa10 kmSSW (200°)16.7 km/hMostly Cloudy
12:50 AM0 °C-3 °C80 %997 hPa10 kmSSW (200°)18.5 km/hMostly Cloudy
1:00 AM0 °C-3.3 °C71 %999 hPa30.6 kmSSW (210°)16.7 km/hPartly Cloudy
1:50 AM0 °C-3 °C80 %996.3 hPa10 kmSSW (210°)13 km/hMostly Cloudy
2:00 AM0 °C-2.8 °C73 %998.6 hPaSW (220°)14.8 km/h
2:20 AM0 °C-3 °C80 %996.3 hPaSW (230°)11.1 km/hClear
2:50 AM0 °C-3 °C80 %997 hPaSW (230°)11.1 km/hClear
3:00 AM-0.6 °C-3.3 °C73 %999.3 hPaSW (230°)9.3 km/h
3:20 AM-1 °C-3 °C86 %997 hPaSSW (200°)11.1 km/hClear
3:28 AM-1 °C-3 °C86 %997 hPaSSW (210°)11.1 km/hClear
3:50 AM-2 °C-4 °C86 %997 hPaSW (220°)9.3 km/hClear
4:20 AM-2 °C-4 °C86 %997 hPaWSW (240°)9.3 km/hClear
4:50 AM-3 °C-4 °C93 %997 hPaSW (220°)5.6 km/hClear
5:00 AM-1.7 °C-3.9 °C79 %999.7 hPaSSW (210°)7.4 km/h
5:20 AM-3 °C-4 °C93 %997 hPaVariable5.6 km/hClear
5:50 AM-4 °C-5 °C93 %997 hPaWSW (240°)9.3 km/hClear
6:00 AM-2.8 °C-4.4 °C83 %1000.3 hPaWSW (240°)5.6 km/h
6:20 AM-3 °C-5 °C86 %997 hPa10 kmVariable1.9 km/hMostly Cloudy
6:50 AM-3 °C-4 °C93 %998 hPa10 kmWNW (290°)5.6 km/hMostly Cloudy
7:00 AM-2.2 °C-4.4 °C80 %1000.3 hPa25.7 kmWest (280°)5.6 km/hScattered Clouds
7:20 AM-3 °C-4 °C93 %998 hPa10 kmVariable3.7 km/hMostly Cloudy
7:50 AM-3 °C-4 °C93 %998 hPa10 kmWNW (290°)3.7 km/hMostly Cloudy
8:00 AM-2.8 °C-4.4 °C86 %1000.7 hPaWSW (240°)1.9 km/h
8:20 AM-3 °C-4 °C93 %997 hPa10 kmVariable3.7 km/hMostly Cloudy
8:50 AM-2 °C-3 °C93 %998 hPa10 kmWest (260°)5.6 km/hMostly Cloudy
9:00 AM-1.7 °C-3.9 °C79 %1000.7 hPaWest (270°)7.4 km/h
9:20 AM-2 °C-3 °C93 %998 hPa10 kmWest (260°)7.4 km/hMostly Cloudy
9:50 AM-1 °C-3 °C86 %998 hPa10 kmVariable3.7 km/hMostly Cloudy
10:20 AM-1 °C-3 °C86 %998 hPa10 kmWest (270°)5.6 km/hMostly Cloudy
10:50 AM0 °C-3 °C80 %998 hPa10 kmWSW (240°)5.6 km/hMostly Cloudy
11:00 AM0.6 °C-2.8 °C70 %1000.7 hPaWSW (240°)13 km/h
11:20 AM1 °C-2 °C81 %999 hPa10 kmSW (230°)16.7 km/hSnowLight Snow
11:50 AM1 °C-2 °C81 %999 hPa10 kmSW (220°)14.8 km/hSnowLight Snow
12:00 PM1.1 °C-2.2 °C69 %1001 hPaSW (230°)11.1 km/h
12:20 PM1 °C-2 °C81 %998 hPa10 kmSW (230°)13 km/hMostly Cloudy
12:50 PM1 °C-2 °C81 %998 hPa10 kmSW (230°)11.1 km/hMostly Cloudy
1:00 PM1.7 °C-2.2 °C67 %1000.7 hPa35.4 kmSW (230°)11.1 km/hSnowLight Snow
1:20 PM2 °C-1 °C81 %998 hPa10 kmSW (220°)14.8 km/hMostly Cloudy
1:50 PM2 °C-1 °C81 %998 hPa10 kmWSW (240°)11.1 km/hMostly Cloudy
2:00 PM1.7 °C-1.7 °C71 %1000.3 hPaWSW (250°)9.3 km/h
2:20 PM2 °C-1 °C81 %998 hPa10 kmSW (230°)14.8 km/hMostly Cloudy
2:50 PM2 °C-1 °C81 %998 hPa10 kmSW (220°)11.1 km/hMostly Cloudy
3:00 PM2.2 °C-1.1 °C70 %1000.3 hPaSW (230°)13 km/h
3:20 PM3 °C-1 °C75 %998 hPa10 kmSW (230°)11.1 km/hMostly Cloudy
3:50 PM3 °C-1 °C75 %998 hPa10 kmSW (230°)9.3 km/hMostly Cloudy
4:20 PM2 °C-1 °C81 %999 hPa10 kmWSW (250°)5.6 km/hMostly Cloudy
4:50 PM3 °C-1 °C75 %999 hPa10 kmVariable5.6 km/hMostly Cloudy
5:00 PM2.2 °C-1.1 °C71 %1000.7 hPaWSW (240°)9.3 km/h
5:20 PM2 °C-1 °C81 %999 hPa10 kmSW (230°)11.1 km/hMostly Cloudy
5:50 PM2 °C-1 °C81 %999 hPa10 kmWSW (240°)16.7 km/hMostly Cloudy
6:00 PM2.8 °C-0.6 °C70 %1001 hPaSW (230°)16.7 km/h
6:20 PM2 °C0 °C87 %999 hPa10 kmWSW (250°)11.1 km/hMostly Cloudy
6:50 PM2 °C0 °C87 %999 hPa10 kmSW (230°)5.6 km/hScattered Clouds
7:00 PM1.7 °C-1.1 °C77 %1001.4 hPa35.4 kmWest (260°)3.7 km/hPartly Cloudy
7:20 PM1 °C-1 °C87 %999 hPa10 kmWSW (240°)9.3 km/hMostly Cloudy
7:50 PM2 °C0 °C87 %1000 hPa10 kmSSW (200°)18.5 km/hMostly Cloudy
8:00 PM1.7 °C0.6 °C87 %1001.7 hPaSouth (190°)16.7 km/h
8:20 PM2 °C1 °C93 %1000 hPa10 kmSW (230°)16.7 km/hMostly Cloudy
8:50 PM2 °C0 °C87 %1000 hPa8 kmWest (270°)7.4 km/hRain-SnowRain Showers
9:00 PM1.7 °C0.6 °C88 %1002.4 hPaSSW (210°)14.8 km/h
9:20 PM2 °C1 °C93 %1000 hPa10 kmSSW (200°)18.5 km/hMostly Cloudy
9:50 PM2 °C1 °C93 %1000 hPa10 kmSSW (210°)11.1 km/hMostly Cloudy
10:20 PM2 °C0 °C87 %1001 hPa10 kmSW (230°)7.4 km/hRain-SnowLight Snow Showers
10:50 PM3 °C0 °C81 %1001 hPa10 kmSSW (200°)16.7 km/hMostly Cloudy
11:00 PM3.3 °C-1.1 °C64 %1002.7 hPaSSW (210°)22.2 km/h
11:20 PM3 °C-1 °C75 %1001 hPa10 kmSSW (210°)24.1 km/hRain-SnowLight Rain
11:50 PM3 °C-1 °C75 %1001 hPa10 kmSW (220°)24.1 km/hMostly Cloudy
Hourly data recorded from LSGG, located 0 kilometers away from Geneva, Switzerland







STORIES FROM OUR PARTNERS